sensor_id;sensor_type;location;lat;lon;timestamp;temperature;humidity
41628;DHT22;27321;50.816;6.054;2023-12-29T00:02:33;11.20;71.30
41628;DHT22;27321;50.816;6.054;2023-12-29T00:05:34;11.10;71.00
41628;DHT22;27321;50.816;6.054;2023-12-29T00:08:36;11.20;71.10
41628;DHT22;27321;50.816;6.054;2023-12-29T00:11:37;11.20;71.00
41628;DHT22;27321;50.816;6.054;2023-12-29T00:14:39;11.10;71.00
41628;DHT22;27321;50.816;6.054;2023-12-29T00:17:41;11.10;71.00
41628;DHT22;27321;50.816;6.054;2023-12-29T00:20:42;11.10;71.10
41628;DHT22;27321;50.816;6.054;2023-12-29T00:23:43;11.10;71.30
41628;DHT22;27321;50.816;6.054;2023-12-29T00:26:44;11.10;71.10
41628;DHT22;27321;50.816;6.054;2023-12-29T00:29:45;11.10;71.10
41628;DHT22;27321;50.816;6.054;2023-12-29T00:32:46;11.10;71.20
41628;DHT22;27321;50.816;6.054;2023-12-29T00:35:47;11.10;71.30
41628;DHT22;27321;50.816;6.054;2023-12-29T00:38:48;11.20;71.40
41628;DHT22;27321;50.816;6.054;2023-12-29T00:41:49;11.10;71.10
41628;DHT22;27321;50.816;6.054;2023-12-29T00:44:50;11.10;71.40
41628;DHT22;27321;50.816;6.054;2023-12-29T00:47:52;11.10;71.20
41628;DHT22;27321;50.816;6.054;2023-12-29T00:50:53;11.10;71.50
41628;DHT22;27321;50.816;6.054;2023-12-29T00:53:54;11.10;71.60
41628;DHT22;27321;50.816;6.054;2023-12-29T00:56:56;11.00;71.50
41628;DHT22;27321;50.816;6.054;2023-12-29T00:59:57;11.00;71.60
41628;DHT22;27321;50.816;6.054;2023-12-29T01:02:57;11.00;71.90
41628;DHT22;27321;50.816;6.054;2023-12-29T01:05:59;11.00;71.90
41628;DHT22;27321;50.816;6.054;2023-12-29T01:09:06;11.00;72.00
41628;DHT22;27321;50.816;6.054;2023-12-29T01:12:14;11.00;72.10
41628;DHT22;27321;50.816;6.054;2023-12-29T01:15:15;11.10;72.00
41628;DHT22;27321;50.816;6.054;2023-12-29T01:18:17;11.10;71.90
41628;DHT22;27321;50.816;6.054;2023-12-29T01:21:18;11.10;72.00
41628;DHT22;27321;50.816;6.054;2023-12-29T01:24:20;11.10;72.30
41628;DHT22;27321;50.816;6.054;2023-12-29T01:27:21;11.10;72.10
41628;DHT22;27321;50.816;6.054;2023-12-29T01:30:24;11.10;72.10
41628;DHT22;27321;50.816;6.054;2023-12-29T01:33:26;11.10;72.00
41628;DHT22;27321;50.816;6.054;2023-12-29T01:36:28;11.10;72.30
41628;DHT22;27321;50.816;6.054;2023-12-29T01:39:30;11.20;72.20
41628;DHT22;27321;50.816;6.054;2023-12-29T01:42:31;11.10;72.20
41628;DHT22;27321;50.816;6.054;2023-12-29T01:45:33;11.10;72.20
41628;DHT22;27321;50.816;6.054;2023-12-29T01:48:33;11.10;72.30
41628;DHT22;27321;50.816;6.054;2023-12-29T01:51:34;11.10;72.40
41628;DHT22;27321;50.816;6.054;2023-12-29T01:54:36;11.10;72.20
41628;DHT22;27321;50.816;6.054;2023-12-29T01:57:42;11.10;72.10
41628;DHT22;27321;50.816;6.054;2023-12-29T02:00:43;11.10;72.40
41628;DHT22;27321;50.816;6.054;2023-12-29T02:03:45;11.20;72.10
41628;DHT22;27321;50.816;6.054;2023-12-29T02:06:46;11.10;72.20
41628;DHT22;27321;50.816;6.054;2023-12-29T02:09:47;11.10;72.10
41628;DHT22;27321;50.816;6.054;2023-12-29T02:12:50;11.10;72.30
41628;DHT22;27321;50.816;6.054;2023-12-29T02:15:52;11.10;72.50
41628;DHT22;27321;50.816;6.054;2023-12-29T02:18:58;11.00;72.60
41628;DHT22;27321;50.816;6.054;2023-12-29T02:21:59;11.10;72.80
41628;DHT22;27321;50.816;6.054;2023-12-29T02:25:00;11.10;72.70
41628;DHT22;27321;50.816;6.054;2023-12-29T02:28:22;11.10;72.50
41628;DHT22;27321;50.816;6.054;2023-12-29T02:31:27;11.10;72.70
41628;DHT22;27321;50.816;6.054;2023-12-29T02:34:32;11.10;72.60
41628;DHT22;27321;50.816;6.054;2023-12-29T02:37:35;11.10;72.60
41628;DHT22;27321;50.816;6.054;2023-12-29T02:40:37;11.10;72.70
41628;DHT22;27321;50.816;6.054;2023-12-29T02:43:39;11.20;72.60
41628;DHT22;27321;50.816;6.054;2023-12-29T02:46:40;11.10;72.50
41628;DHT22;27321;50.816;6.054;2023-12-29T02:49:41;11.10;72.90
41628;DHT22;27321;50.816;6.054;2023-12-29T02:52:42;11.10;72.70
41628;DHT22;27321;50.816;6.054;2023-12-29T02:55:43;11.10;72.80
41628;DHT22;27321;50.816;6.054;2023-12-29T02:58:44;11.10;72.70
41628;DHT22;27321;50.816;6.054;2023-12-29T03:01:46;11.10;73.00
41628;DHT22;27321;50.816;6.054;2023-12-29T03:04:47;11.10;72.70
41628;DHT22;27321;50.816;6.054;2023-12-29T03:07:48;11.10;72.80
41628;DHT22;27321;50.816;6.054;2023-12-29T03:10:49;11.10;72.90
41628;DHT22;27321;50.816;6.054;2023-12-29T03:13:50;11.10;72.90
41628;DHT22;27321;50.816;6.054;2023-12-29T03:16:51;11.10;72.90
41628;DHT22;27321;50.816;6.054;2023-12-29T03:19:52;11.00;72.90
41628;DHT22;27321;50.816;6.054;2023-12-29T03:22:53;11.10;72.90
41628;DHT22;27321;50.816;6.054;2023-12-29T03:25:56;11.10;73.00
41628;DHT22;27321;50.816;6.054;2023-12-29T03:28:56;11.10;73.10
41628;DHT22;27321;50.816;6.054;2023-12-29T03:31:59;11.10;73.00
41628;DHT22;27321;50.816;6.054;2023-12-29T03:35:00;11.10;73.00
41628;DHT22;27321;50.816;6.054;2023-12-29T03:38:03;11.10;72.90
41628;DHT22;27321;50.816;6.054;2023-12-29T03:41:05;11.10;72.90
41628;DHT22;27321;50.816;6.054;2023-12-29T03:44:06;11.10;72.70
41628;DHT22;27321;50.816;6.054;2023-12-29T03:47:08;11.20;72.70
41628;DHT22;27321;50.816;6.054;2023-12-29T03:50:11;11.20;72.50
41628;DHT22;27321;50.816;6.054;2023-12-29T03:53:12;11.20;72.80
41628;DHT22;27321;50.816;6.054;2023-12-29T03:56:17;11.20;72.70
41628;DHT22;27321;50.816;6.054;2023-12-29T03:59:18;11.20;72.60
41628;DHT22;27321;50.816;6.054;2023-12-29T04:02:19;11.30;72.60
41628;DHT22;27321;50.816;6.054;2023-12-29T04:05:20;11.30;72.90
41628;DHT22;27321;50.816;6.054;2023-12-29T04:08:21;11.30;72.90
41628;DHT22;27321;50.816;6.054;2023-12-29T04:11:23;11.30;72.70
41628;DHT22;27321;50.816;6.054;2023-12-29T04:14:24;11.30;73.00
41628;DHT22;27321;50.816;6.054;2023-12-29T04:17:25;11.30;72.90
41628;DHT22;27321;50.816;6.054;2023-12-29T04:20:26;11.30;73.00
41628;DHT22;27321;50.816;6.054;2023-12-29T04:23:27;11.30;72.80
41628;DHT22;27321;50.816;6.054;2023-12-29T04:26:28;11.30;72.90
41628;DHT22;27321;50.816;6.054;2023-12-29T04:29:32;11.30;73.10
41628;DHT22;27321;50.816;6.054;2023-12-29T04:32:33;11.30;73.30
41628;DHT22;27321;50.816;6.054;2023-12-29T04:35:34;11.30;73.10
41628;DHT22;27321;50.816;6.054;2023-12-29T04:38:36;11.20;72.80
41628;DHT22;27321;50.816;6.054;2023-12-29T04:41:40;11.30;72.70
41628;DHT22;27321;50.816;6.054;2023-12-29T04:44:40;11.30;72.90
41628;DHT22;27321;50.816;6.054;2023-12-29T04:47:41;11.30;72.80
41628;DHT22;27321;50.816;6.054;2023-12-29T04:50:43;11.30;72.60
41628;DHT22;27321;50.816;6.054;2023-12-29T04:53:44;11.30;72.60
41628;DHT22;27321;50.816;6.054;2023-12-29T04:56:45;11.30;72.40
41628;DHT22;27321;50.816;6.054;2023-12-29T04:59:46;11.30;72.50
41628;DHT22;27321;50.816;6.054;2023-12-29T05:02:47;11.30;72.50
41628;DHT22;27321;50.816;6.054;2023-12-29T05:05:48;11.30;72.80
41628;DHT22;27321;50.816;6.054;2023-12-29T05:08:49;11.30;72.60
41628;DHT22;27321;50.816;6.054;2023-12-29T05:11:50;11.30;72.60
41628;DHT22;27321;50.816;6.054;2023-12-29T05:14:51;11.30;72.70
41628;DHT22;27321;50.816;6.054;2023-12-29T05:17:52;11.30;72.40
41628;DHT22;27321;50.816;6.054;2023-12-29T05:20:53;11.30;72.30
41628;DHT22;27321;50.816;6.054;2023-12-29T05:23:54;11.30;72.30
41628;DHT22;27321;50.816;6.054;2023-12-29T05:26:55;11.30;72.10
41628;DHT22;27321;50.816;6.054;2023-12-29T05:29:56;11.30;72.10
41628;DHT22;27321;50.816;6.054;2023-12-29T05:32:57;11.30;72.30
41628;DHT22;27321;50.816;6.054;2023-12-29T05:35:59;11.30;72.30
41628;DHT22;27321;50.816;6.054;2023-12-29T05:39:06;11.30;71.90
41628;DHT22;27321;50.816;6.054;2023-12-29T05:42:07;11.30;72.20
41628;DHT22;27321;50.816;6.054;2023-12-29T05:45:08;11.30;72.00
41628;DHT22;27321;50.816;6.054;2023-12-29T05:48:13;11.20;72.10
41628;DHT22;27321;50.816;6.054;2023-12-29T05:51:14;11.20;72.50
41628;DHT22;27321;50.816;6.054;2023-12-29T05:54:15;11.20;72.50
41628;DHT22;27321;50.816;6.054;2023-12-29T05:57:16;11.20;72.70
41628;DHT22;27321;50.816;6.054;2023-12-29T06:00:17;11.20;72.80
41628;DHT22;27321;50.816;6.054;2023-12-29T06:03:18;11.20;72.60
41628;DHT22;27321;50.816;6.054;2023-12-29T06:06:38;11.30;72.80
41628;DHT22;27321;50.816;6.054;2023-12-29T06:09:39;11.30;72.80
41628;DHT22;27321;50.816;6.054;2023-12-29T06:12:43;11.30;73.10
41628;DHT22;27321;50.816;6.054;2023-12-29T06:15:44;11.20;73.00
41628;DHT22;27321;50.816;6.054;2023-12-29T06:18:48;11.20;73.20
41628;DHT22;27321;50.816;6.054;2023-12-29T06:21:51;11.30;73.20
41628;DHT22;27321;50.816;6.054;2023-12-29T06:24:58;11.30;73.30
41628;DHT22;27321;50.816;6.054;2023-12-29T06:27:59;11.30;73.40
41628;DHT22;27321;50.816;6.054;2023-12-29T06:31:05;11.30;73.30
41628;DHT22;27321;50.816;6.054;2023-12-29T06:34:08;11.30;73.40
41628;DHT22;27321;50.816;6.054;2023-12-29T06:37:09;11.30;73.60
41628;DHT22;27321;50.816;6.054;2023-12-29T06:40:11;11.30;73.60
41628;DHT22;27321;50.816;6.054;2023-12-29T06:43:12;11.30;73.70
41628;DHT22;27321;50.816;6.054;2023-12-29T06:46:13;11.30;73.70
41628;DHT22;27321;50.816;6.054;2023-12-29T06:49:14;11.30;73.90
41628;DHT22;27321;50.816;6.054;2023-12-29T06:52:15;11.20;73.90
41628;DHT22;27321;50.816;6.054;2023-12-29T06:55:16;11.30;73.80
41628;DHT22;27321;50.816;6.054;2023-12-29T06:58:17;11.30;73.80
41628;DHT22;27321;50.816;6.054;2023-12-29T07:01:18;11.30;73.70
41628;DHT22;27321;50.816;6.054;2023-12-29T07:04:22;11.30;74.00
41628;DHT22;27321;50.816;6.054;2023-12-29T07:07:24;11.30;73.90
41628;DHT22;27321;50.816;6.054;2023-12-29T07:10:25;11.40;73.90
41628;DHT22;27321;50.816;6.054;2023-12-29T07:13:26;11.30;74.10
41628;DHT22;27321;50.816;6.054;2023-12-29T07:16:28;11.30;73.90
41628;DHT22;27321;50.816;6.054;2023-12-29T07:19:29;11.30;74.00
41628;DHT22;27321;50.816;6.054;2023-12-29T07:22:37;11.30;74.80
41628;DHT22;27321;50.816;6.054;2023-12-29T07:25:38;11.20;76.10
41628;DHT22;27321;50.816;6.054;2023-12-29T07:28:39;11.20;76.90
41628;DHT22;27321;50.816;6.054;2023-12-29T07:31:40;11.20;77.50
41628;DHT22;27321;50.816;6.054;2023-12-29T07:34:41;11.10;77.90
41628;DHT22;27321;50.816;6.054;2023-12-29T07:37:45;11.10;78.30
41628;DHT22;27321;50.816;6.054;2023-12-29T07:40:47;11.10;78.60
41628;DHT22;27321;50.816;6.054;2023-12-29T07:43:50;11.10;78.90
41628;DHT22;27321;50.816;6.054;2023-12-29T07:46:51;11.00;79.10
41628;DHT22;27321;50.816;6.054;2023-12-29T07:49:52;11.10;79.20
41628;DHT22;27321;50.816;6.054;2023-12-29T07:52:53;11.00;79.20
41628;DHT22;27321;50.816;6.054;2023-12-29T07:55:54;11.00;79.40
41628;DHT22;27321;50.816;6.054;2023-12-29T07:58:58;11.00;79.80
41628;DHT22;27321;50.816;6.054;2023-12-29T08:01:59;11.00;79.90
41628;DHT22;27321;50.816;6.054;2023-12-29T08:05:00;10.90;79.80
41628;DHT22;27321;50.816;6.054;2023-12-29T08:08:02;10.90;80.00
41628;DHT22;27321;50.816;6.054;2023-12-29T08:11:03;10.90;79.90
41628;DHT22;27321;50.816;6.054;2023-12-29T08:14:04;10.90;80.30
41628;DHT22;27321;50.816;6.054;2023-12-29T08:17:07;10.90;80.40
41628;DHT22;27321;50.816;6.054;2023-12-29T08:20:09;10.90;80.40
41628;DHT22;27321;50.816;6.054;2023-12-29T08:23:11;10.90;80.70
41628;DHT22;27321;50.816;6.054;2023-12-29T08:26:12;10.90;80.90
41628;DHT22;27321;50.816;6.054;2023-12-29T08:29:14;10.90;80.70
41628;DHT22;27321;50.816;6.054;2023-12-29T08:32:18;10.90;80.70
41628;DHT22;27321;50.816;6.054;2023-12-29T08:35:22;10.90;81.00
41628;DHT22;27321;50.816;6.054;2023-12-29T08:38:23;10.90;80.70
41628;DHT22;27321;50.816;6.054;2023-12-29T08:41:24;10.90;80.70
41628;DHT22;27321;50.816;6.054;2023-12-29T08:44:25;10.90;80.40
41628;DHT22;27321;50.816;6.054;2023-12-29T08:47:26;10.90;81.10
41628;DHT22;27321;50.816;6.054;2023-12-29T08:50:27;10.90;81.20
41628;DHT22;27321;50.816;6.054;2023-12-29T08:53:32;11.00;81.00
41628;DHT22;27321;50.816;6.054;2023-12-29T08:56:36;11.00;80.80
41628;DHT22;27321;50.816;6.054;2023-12-29T08:59:37;11.00;81.10
41628;DHT22;27321;50.816;6.054;2023-12-29T09:02:39;11.00;81.00
41628;DHT22;27321;50.816;6.054;2023-12-29T09:05:41;11.00;81.00
41628;DHT22;27321;50.816;6.054;2023-12-29T09:08:43;11.00;80.80
41628;DHT22;27321;50.816;6.054;2023-12-29T09:11:46;11.00;80.70
41628;DHT22;27321;50.816;6.054;2023-12-29T09:14:49;11.00;80.90
41628;DHT22;27321;50.816;6.054;2023-12-29T09:17:53;11.00;81.00
41628;DHT22;27321;50.816;6.054;2023-12-29T09:20:56;11.00;81.00
41628;DHT22;27321;50.816;6.054;2023-12-29T09:23:58;11.00;81.00
41628;DHT22;27321;50.816;6.054;2023-12-29T09:26:59;11.00;80.60
41628;DHT22;27321;50.816;6.054;2023-12-29T09:30:00;11.00;80.80
41628;DHT22;27321;50.816;6.054;2023-12-29T09:33:03;11.00;80.60
41628;DHT22;27321;50.816;6.054;2023-12-29T09:36:04;11.00;80.50
41628;DHT22;27321;50.816;6.054;2023-12-29T09:39:06;10.90;80.80
41628;DHT22;27321;50.816;6.054;2023-12-29T09:42:09;11.00;81.00
41628;DHT22;27321;50.816;6.054;2023-12-29T09:45:24;11.00;80.80
41628;DHT22;27321;50.816;6.054;2023-12-29T09:48:27;11.00;81.00
41628;DHT22;27321;50.816;6.054;2023-12-29T09:51:35;11.00;81.00
41628;DHT22;27321;50.816;6.054;2023-12-29T09:54:38;11.00;80.90
41628;DHT22;27321;50.816;6.054;2023-12-29T09:57:40;11.10;80.90
41628;DHT22;27321;50.816;6.054;2023-12-29T10:00:42;11.10;80.90
41628;DHT22;27321;50.816;6.054;2023-12-29T10:03:43;11.00;81.00
41628;DHT22;27321;50.816;6.054;2023-12-29T10:06:44;11.00;81.10
41628;DHT22;27321;50.816;6.054;2023-12-29T10:09:48;11.00;81.00
41628;DHT22;27321;50.816;6.054;2023-12-29T10:12:52;11.00;80.90
41628;DHT22;27321;50.816;6.054;2023-12-29T10:15:59;11.00;80.70
41628;DHT22;27321;50.816;6.054;2023-12-29T10:19:27;11.00;80.90
41628;DHT22;27321;50.816;6.054;2023-12-29T10:22:41;11.10;81.00
41628;DHT22;27321;50.816;6.054;2023-12-29T10:25:52;11.10;80.90
41628;DHT22;27321;50.816;6.054;2023-12-29T10:28:53;11.20;80.70
41628;DHT22;27321;50.816;6.054;2023-12-29T10:31:54;11.20;80.40
41628;DHT22;27321;50.816;6.054;2023-12-29T10:35:09;11.30;80.10
41628;DHT22;27321;50.816;6.054;2023-12-29T10:38:12;11.30;79.90
41628;DHT22;27321;50.816;6.054;2023-12-29T10:41:17;11.40;79.50
41628;DHT22;27321;50.816;6.054;2023-12-29T10:44:19;11.40;79.50
41628;DHT22;27321;50.816;6.054;2023-12-29T10:47:24;11.50;79.10
41628;DHT22;27321;50.816;6.054;2023-12-29T10:50:25;11.40;78.80
41628;DHT22;27321;50.816;6.054;2023-12-29T10:53:27;11.50;79.10
41628;DHT22;27321;50.816;6.054;2023-12-29T10:56:29;11.50;78.90
41628;DHT22;27321;50.816;6.054;2023-12-29T10:59:34;11.50;78.70
41628;DHT22;27321;50.816;6.054;2023-12-29T11:02:38;11.60;78.70
41628;DHT22;27321;50.816;6.054;2023-12-29T11:05:41;11.60;78.60
41628;DHT22;27321;50.816;6.054;2023-12-29T11:08:43;11.70;79.20
41628;DHT22;27321;50.816;6.054;2023-12-29T11:11:44;11.70;79.20
41628;DHT22;27321;50.816;6.054;2023-12-29T11:14:45;11.70;79.70
41628;DHT22;27321;50.816;6.054;2023-12-29T11:17:50;11.80;79.70
41628;DHT22;27321;50.816;6.054;2023-12-29T11:20:52;11.80;79.60
41628;DHT22;27321;50.816;6.054;2023-12-29T11:23:53;11.80;79.60
41628;DHT22;27321;50.816;6.054;2023-12-29T11:26:55;11.90;79.70
41628;DHT22;27321;50.816;6.054;2023-12-29T11:30:04;11.80;79.70
41628;DHT22;27321;50.816;6.054;2023-12-29T11:33:08;11.80;79.90
41628;DHT22;27321;50.816;6.054;2023-12-29T11:36:42;11.90;79.70
41628;DHT22;27321;50.816;6.054;2023-12-29T11:39:54;11.90;79.00
41628;DHT22;27321;50.816;6.054;2023-12-29T11:53:05;11.80;79.20
41628;DHT22;27321;50.816;6.054;2023-12-29T12:02:13;11.80;79.40
41628;DHT22;27321;50.816;6.054;2023-12-29T13:06:31;11.70;78.90
41628;DHT22;27321;50.816;6.054;2023-12-29T13:10:13;11.70;78.90
41628;DHT22;27321;50.816;6.054;2023-12-29T13:13:34;11.60;79.30
41628;DHT22;27321;50.816;6.054;2023-12-29T13:17:04;11.60;79.70
41628;DHT22;27321;50.816;6.054;2023-12-29T13:21:11;11.60;79.90
41628;DHT22;27321;50.816;6.054;2023-12-29T13:52:15;11.70;80.60
41628;DHT22;27321;50.816;6.054;2023-12-29T13:55:42;11.70;80.70
41628;DHT22;27321;50.816;6.054;2023-12-29T13:59:14;11.70;80.40
41628;DHT22;27321;50.816;6.054;2023-12-29T14:03:08;11.60;80.40
41628;DHT22;27321;50.816;6.054;2023-12-29T14:06:43;11.60;80.40
41628;DHT22;27321;50.816;6.054;2023-12-29T14:09:59;11.60;80.50
41628;DHT22;27321;50.816;6.054;2023-12-29T14:13:45;11.50;80.70
41628;DHT22;27321;50.816;6.054;2023-12-29T14:17:04;11.60;80.60
41628;DHT22;27321;50.816;6.054;2023-12-29T14:23:35;11.60;80.40
41628;DHT22;27321;50.816;6.054;2023-12-29T14:29:57;11.60;80.20
41628;DHT22;27321;50.816;6.054;2023-12-29T14:32:59;11.60;80.20
41628;DHT22;27321;50.816;6.054;2023-12-29T14:36:00;11.60;80.10
41628;DHT22;27321;50.816;6.054;2023-12-29T14:39:08;11.60;80.20
41628;DHT22;27321;50.816;6.054;2023-12-29T14:42:13;11.60;80.20
41628;DHT22;27321;50.816;6.054;2023-12-29T14:45:40;11.60;80.40
41628;DHT22;27321;50.816;6.054;2023-12-29T14:48:41;11.50;80.70
41628;DHT22;27321;50.816;6.054;2023-12-29T14:51:42;11.50;80.80
41628;DHT22;27321;50.816;6.054;2023-12-29T14:54:43;11.50;81.00
41628;DHT22;27321;50.816;6.054;2023-12-29T14:57:44;11.50;81.20
41628;DHT22;27321;50.816;6.054;2023-12-29T15:00:45;11.50;81.10
41628;DHT22;27321;50.816;6.054;2023-12-29T15:03:52;11.50;80.80
41628;DHT22;27321;50.816;6.054;2023-12-29T15:06:53;11.50;80.90
41628;DHT22;27321;50.816;6.054;2023-12-29T15:09:54;11.50;80.90
41628;DHT22;27321;50.816;6.054;2023-12-29T15:12:55;11.50;81.10
41628;DHT22;27321;50.816;6.054;2023-12-29T15:15:58;11.40;81.10
41628;DHT22;27321;50.816;6.054;2023-12-29T15:19:00;11.40;81.10
41628;DHT22;27321;50.816;6.054;2023-12-29T15:22:04;11.40;81.30
41628;DHT22;27321;50.816;6.054;2023-12-29T15:25:05;11.40;81.50
41628;DHT22;27321;50.816;6.054;2023-12-29T15:28:07;11.40;81.50
41628;DHT22;27321;50.816;6.054;2023-12-29T15:31:08;11.50;81.60
41628;DHT22;27321;50.816;6.054;2023-12-29T15:34:11;11.40;81.40
41628;DHT22;27321;50.816;6.054;2023-12-29T15:37:12;11.40;81.30
41628;DHT22;27321;50.816;6.054;2023-12-29T15:40:13;11.50;81.30
41628;DHT22;27321;50.816;6.054;2023-12-29T15:43:14;11.40;81.30
41628;DHT22;27321;50.816;6.054;2023-12-29T15:46:16;11.40;81.10
41628;DHT22;27321;50.816;6.054;2023-12-29T15:49:18;11.40;81.20
41628;DHT22;27321;50.816;6.054;2023-12-29T15:52:19;11.30;81.30
41628;DHT22;27321;50.816;6.054;2023-12-29T15:55:20;11.30;81.30
41628;DHT22;27321;50.816;6.054;2023-12-29T15:58:21;11.30;81.20
41628;DHT22;27321;50.816;6.054;2023-12-29T16:01:25;11.30;81.20
41628;DHT22;27321;50.816;6.054;2023-12-29T16:04:28;11.30;81.30
41628;DHT22;27321;50.816;6.054;2023-12-29T16:07:29;11.30;81.10
41628;DHT22;27321;50.816;6.054;2023-12-29T16:10:31;11.30;80.80
41628;DHT22;27321;50.816;6.054;2023-12-29T16:13:32;11.40;80.60
41628;DHT22;27321;50.816;6.054;2023-12-29T16:16:33;11.40;80.50
41628;DHT22;27321;50.816;6.054;2023-12-29T16:19:38;11.40;80.70
41628;DHT22;27321;50.816;6.054;2023-12-29T16:22:39;11.30;80.40
41628;DHT22;27321;50.816;6.054;2023-12-29T16:25:41;11.40;80.30
41628;DHT22;27321;50.816;6.054;2023-12-29T16:28:42;11.30;80.80
41628;DHT22;27321;50.816;6.054;2023-12-29T16:31:42;11.30;80.80
41628;DHT22;27321;50.816;6.054;2023-12-29T16:34:43;11.30;81.20
41628;DHT22;27321;50.816;6.054;2023-12-29T16:37:44;11.30;81.50
41628;DHT22;27321;50.816;6.054;2023-12-29T16:40:45;11.30;81.50
41628;DHT22;27321;50.816;6.054;2023-12-29T16:43:47;11.30;81.50
41628;DHT22;27321;50.816;6.054;2023-12-29T16:46:51;11.30;81.40
41628;DHT22;27321;50.816;6.054;2023-12-29T16:49:52;11.30;80.90
41628;DHT22;27321;50.816;6.054;2023-12-29T16:52:53;11.30;81.00
41628;DHT22;27321;50.816;6.054;2023-12-29T16:55:54;11.30;80.80
41628;DHT22;27321;50.816;6.054;2023-12-29T16:58:56;11.30;80.60
41628;DHT22;27321;50.816;6.054;2023-12-29T17:02:03;11.30;80.80
41628;DHT22;27321;50.816;6.054;2023-12-29T17:05:07;11.30;80.80
41628;DHT22;27321;50.816;6.054;2023-12-29T17:08:09;11.30;80.60
41628;DHT22;27321;50.816;6.054;2023-12-29T17:11:10;11.30;80.70
41628;DHT22;27321;50.816;6.054;2023-12-29T17:14:11;11.30;80.40
41628;DHT22;27321;50.816;6.054;2023-12-29T17:17:13;11.30;80.60
41628;DHT22;27321;50.816;6.054;2023-12-29T17:20:14;11.20;80.40
41628;DHT22;27321;50.816;6.054;2023-12-29T17:23:19;11.20;80.30
41628;DHT22;27321;50.816;6.054;2023-12-29T17:26:20;11.20;80.20
41628;DHT22;27321;50.816;6.054;2023-12-29T17:29:21;11.20;79.60
41628;DHT22;27321;50.816;6.054;2023-12-29T17:32:22;11.20;79.50
41628;DHT22;27321;50.816;6.054;2023-12-29T17:35:23;11.20;79.20
41628;DHT22;27321;50.816;6.054;2023-12-29T17:38:25;11.10;78.90
41628;DHT22;27321;50.816;6.054;2023-12-29T17:41:26;11.10;78.50
41628;DHT22;27321;50.816;6.054;2023-12-29T17:44:27;11.10;78.40
41628;DHT22;27321;50.816;6.054;2023-12-29T17:47:28;11.10;78.20
41628;DHT22;27321;50.816;6.054;2023-12-29T17:50:29;11.10;77.90
41628;DHT22;27321;50.816;6.054;2023-12-29T17:53:30;11.10;77.80
41628;DHT22;27321;50.816;6.054;2023-12-29T17:56:31;11.10;77.60
41628;DHT22;27321;50.816;6.054;2023-12-29T17:59:32;11.10;77.60
41628;DHT22;27321;50.816;6.054;2023-12-29T18:02:33;11.10;78.10
41628;DHT22;27321;50.816;6.054;2023-12-29T18:05:34;11.10;77.80
41628;DHT22;27321;50.816;6.054;2023-12-29T18:08:35;11.10;77.50
41628;DHT22;27321;50.816;6.054;2023-12-29T18:11:36;11.20;77.70
41628;DHT22;27321;50.816;6.054;2023-12-29T18:14:39;11.20;77.70
41628;DHT22;27321;50.816;6.054;2023-12-29T18:17:41;11.30;77.70
41628;DHT22;27321;50.816;6.054;2023-12-29T18:20:42;11.20;77.10
41628;DHT22;27321;50.816;6.054;2023-12-29T18:23:49;11.20;77.30
41628;DHT22;27321;50.816;6.054;2023-12-29T18:26:50;11.30;77.30
41628;DHT22;27321;50.816;6.054;2023-12-29T18:29:51;11.30;77.30
41628;DHT22;27321;50.816;6.054;2023-12-29T18:32:52;11.20;77.40
41628;DHT22;27321;50.816;6.054;2023-12-29T18:35:52;11.20;77.50
41628;DHT22;27321;50.816;6.054;2023-12-29T18:38:55;11.20;77.80
41628;DHT22;27321;50.816;6.054;2023-12-29T18:41:57;11.30;77.50
41628;DHT22;27321;50.816;6.054;2023-12-29T18:45:00;11.30;77.70
41628;DHT22;27321;50.816;6.054;2023-12-29T18:48:02;11.30;77.60
41628;DHT22;27321;50.816;6.054;2023-12-29T18:51:06;11.30;77.60
41628;DHT22;27321;50.816;6.054;2023-12-29T18:54:11;11.30;77.40
41628;DHT22;27321;50.816;6.054;2023-12-29T18:57:12;11.30;77.20
41628;DHT22;27321;50.816;6.054;2023-12-29T19:00:16;11.30;77.20
41628;DHT22;27321;50.816;6.054;2023-12-29T19:03:17;11.30;77.20
41628;DHT22;27321;50.816;6.054;2023-12-29T19:06:23;11.30;77.40
41628;DHT22;27321;50.816;6.054;2023-12-29T19:09:25;11.30;77.30
41628;DHT22;27321;50.816;6.054;2023-12-29T19:12:26;11.30;77.40
41628;DHT22;27321;50.816;6.054;2023-12-29T19:15:27;11.20;75.90
41628;DHT22;27321;50.816;6.054;2023-12-29T19:18:28;11.10;76.10
41628;DHT22;27321;50.816;6.054;2023-12-29T19:21:29;11.00;76.60
41628;DHT22;27321;50.816;6.054;2023-12-29T19:24:32;11.00;77.90
41628;DHT22;27321;50.816;6.054;2023-12-29T19:27:36;11.00;78.80
41628;DHT22;27321;50.816;6.054;2023-12-29T19:30:37;11.10;79.00
41628;DHT22;27321;50.816;6.054;2023-12-29T19:33:39;11.10;79.00
41628;DHT22;27321;50.816;6.054;2023-12-29T19:36:40;11.10;79.10
41628;DHT22;27321;50.816;6.054;2023-12-29T19:39:44;11.00;78.90
41628;DHT22;27321;50.816;6.054;2023-12-29T19:42:45;11.00;79.00
41628;DHT22;27321;50.816;6.054;2023-12-29T19:45:46;11.00;78.90
41628;DHT22;27321;50.816;6.054;2023-12-29T19:48:46;11.00;78.80
41628;DHT22;27321;50.816;6.054;2023-12-29T19:51:47;11.00;78.90
41628;DHT22;27321;50.816;6.054;2023-12-29T19:54:48;11.00;76.40
41628;DHT22;27321;50.816;6.054;2023-12-29T19:57:49;10.90;75.90
41628;DHT22;27321;50.816;6.054;2023-12-29T20:00:50;10.90;74.70
41628;DHT22;27321;50.816;6.054;2023-12-29T20:03:51;10.90;73.00
41628;DHT22;27321;50.816;6.054;2023-12-29T20:06:52;10.80;72.60
41628;DHT22;27321;50.816;6.054;2023-12-29T20:09:54;10.70;72.70
41628;DHT22;27321;50.816;6.054;2023-12-29T20:12:55;10.60;73.00
41628;DHT22;27321;50.816;6.054;2023-12-29T20:15:56;10.60;73.70
41628;DHT22;27321;50.816;6.054;2023-12-29T20:18:57;10.60;74.40
41628;DHT22;27321;50.816;6.054;2023-12-29T20:21:59;10.50;75.00
41628;DHT22;27321;50.816;6.054;2023-12-29T20:25:00;10.50;75.40
41628;DHT22;27321;50.816;6.054;2023-12-29T20:28:03;10.40;75.60
41628;DHT22;27321;50.816;6.054;2023-12-29T20:31:04;10.40;76.10
41628;DHT22;27321;50.816;6.054;2023-12-29T20:34:05;10.30;77.00
41628;DHT22;27321;50.816;6.054;2023-12-29T20:37:06;10.30;77.00
41628;DHT22;27321;50.816;6.054;2023-12-29T20:40:07;10.30;77.40
41628;DHT22;27321;50.816;6.054;2023-12-29T20:43:08;10.30;77.50
41628;DHT22;27321;50.816;6.054;2023-12-29T20:46:09;10.40;77.40
41628;DHT22;27321;50.816;6.054;2023-12-29T20:49:10;10.40;77.40
41628;DHT22;27321;50.816;6.054;2023-12-29T20:52:11;10.40;77.20
41628;DHT22;27321;50.816;6.054;2023-12-29T20:55:12;10.50;77.60
41628;DHT22;27321;50.816;6.054;2023-12-29T20:58:13;10.50;77.40
41628;DHT22;27321;50.816;6.054;2023-12-29T21:01:14;10.60;77.90
41628;DHT22;27321;50.816;6.054;2023-12-29T21:04:15;10.60;78.30
41628;DHT22;27321;50.816;6.054;2023-12-29T21:07:16;10.70;78.20
41628;DHT22;27321;50.816;6.054;2023-12-29T21:10:18;10.60;78.60